Disclaimer

Please do not use the information listed here in-flight or in-navigation, as they are not provided to us by the airports but are provided by volunteers, so they might be outdated.

Search


Regions


Airport information page

No radio frequency information is available.

Airport informations:
Latitude: 31° 42' 15.41" N
Longitude: 009° 15' 16.63" E
Elevation: 827 feet - 252 meters
Operating hours: 24 hour operations
Operating agency: Civil government, landing fees and diplomatic clearance may be required
Timezone: UTC+1(+2DT)
Fuel: Jet A1, without icing nhibitor.

100/130 MIL Spec, low lead, aviation gasoline (BLUE)

Runway information:
11/29 - 8858 x 148 feet< - >2700 x 45 meters

Recent METARs:
DTTR 131600Z 10011KT 8000 FEW026 24/08 Q1022
DTTR 131600Z 10011KT 8000 FEW026 24/08 Q1022
DTTR 131600Z 10011KT 8000 FEW026 24/08 Q1022

Airport on the map: